sensor_id;sensor_type;location;lat;lon;timestamp;pressure;altitude;pressure_sealevel;temperature;humidity
75172;BME280;63750;52.418;20.742;2023-04-09T00:00:00;101422.35;;;11.29;66.29
75172;BME280;63750;52.418;20.742;2023-04-09T00:02:28;101418.32;;;11.31;66.31
75172;BME280;63750;52.418;20.742;2023-04-09T00:04:57;101418.08;;;11.32;66.54
75172;BME280;63750;52.418;20.742;2023-04-09T00:07:25;101410.77;;;11.32;66.61
75172;BME280;63750;52.418;20.742;2023-04-09T00:09:53;101403.44;;;11.31;66.32
75172;BME280;63750;52.418;20.742;2023-04-09T00:12:22;101402.84;;;11.29;66.56
75172;BME280;63750;52.418;20.742;2023-04-09T00:14:50;101411.92;;;11.27;66.51
75172;BME280;63750;52.418;20.742;2023-04-09T00:17:19;101407.30;;;11.27;66.51
75172;BME280;63750;52.418;20.742;2023-04-09T00:19:48;101403.01;;;11.27;66.46
75172;BME280;63750;52.418;20.742;2023-04-09T00:22:16;101408.90;;;11.27;66.76
75172;BME280;63750;52.418;20.742;2023-04-09T00:24:44;101410.91;;;11.28;66.63
75172;BME280;63750;52.418;20.742;2023-04-09T00:27:13;101409.52;;;11.28;66.72
75172;BME280;63750;52.418;20.742;2023-04-09T00:29:41;101406.13;;;11.28;66.81
75172;BME280;63750;52.418;20.742;2023-04-09T00:32:10;101400.79;;;11.28;66.79
75172;BME280;63750;52.418;20.742;2023-04-09T00:34:38;101398.55;;;11.30;66.81
75172;BME280;63750;52.418;20.742;2023-04-09T00:37:07;101398.23;;;11.29;66.77
75172;BME280;63750;52.418;20.742;2023-04-09T00:39:35;101399.11;;;11.29;66.81
75172;BME280;63750;52.418;20.742;2023-04-09T00:42:03;101401.73;;;11.30;66.60
75172;BME280;63750;52.418;20.742;2023-04-09T00:44:32;101399.23;;;11.30;66.63
75172;BME280;63750;52.418;20.742;2023-04-09T00:47:00;101401.00;;;11.30;67.01
75172;BME280;63750;52.418;20.742;2023-04-09T00:49:29;101401.96;;;11.29;66.67
75172;BME280;63750;52.418;20.742;2023-04-09T00:51:57;101396.91;;;11.28;66.77
75172;BME280;63750;52.418;20.742;2023-04-09T00:54:25;101395.89;;;11.28;66.84
75172;BME280;63750;52.418;20.742;2023-04-09T00:56:55;101396.46;;;11.27;66.86
75172;BME280;63750;52.418;20.742;2023-04-09T00:59:24;101394.50;;;11.27;67.06
75172;BME280;63750;52.418;20.742;2023-04-09T01:01:53;101387.38;;;11.27;66.90
75172;BME280;63750;52.418;20.742;2023-04-09T01:04:22;101389.61;;;11.28;66.76
75172;BME280;63750;52.418;20.742;2023-04-09T01:06:54;101386.32;;;11.27;67.07
75172;BME280;63750;52.418;20.742;2023-04-09T01:09:29;101383.52;;;11.27;66.74
75172;BME280;63750;52.418;20.742;2023-04-09T01:12:08;101385.53;;;11.26;66.71
75172;BME280;63750;52.418;20.742;2023-04-09T01:14:44;101385.13;;;11.24;66.82
75172;BME280;63750;52.418;20.742;2023-04-09T01:17:20;101385.85;;;11.24;66.73
75172;BME280;63750;52.418;20.742;2023-04-09T01:19:57;101385.88;;;11.24;66.99
75172;BME280;63750;52.418;20.742;2023-04-09T01:22:36;101390.14;;;11.24;66.94
75172;BME280;63750;52.418;20.742;2023-04-09T01:25:15;101391.92;;;11.24;67.04
75172;BME280;63750;52.418;20.742;2023-04-09T01:28:10;101393.05;;;11.23;66.92
75172;BME280;63750;52.418;20.742;2023-04-09T01:30:43;101389.84;;;11.21;66.93
75172;BME280;63750;52.418;20.742;2023-04-09T01:33:12;101390.19;;;11.23;67.20
75172;BME280;63750;52.418;20.742;2023-04-09T01:35:42;101389.70;;;11.25;66.99
75172;BME280;63750;52.418;20.742;2023-04-09T01:38:14;101395.29;;;11.24;66.82
75172;BME280;63750;52.418;20.742;2023-04-09T01:40:44;101394.31;;;11.23;67.00
75172;BME280;63750;52.418;20.742;2023-04-09T01:43:13;101395.59;;;11.22;67.13
75172;BME280;63750;52.418;20.742;2023-04-09T01:45:43;101393.75;;;11.21;67.02
75172;BME280;63750;52.418;20.742;2023-04-09T01:48:12;101392.98;;;11.21;67.12
75172;BME280;63750;52.418;20.742;2023-04-09T01:50:41;101398.96;;;11.20;66.91
75172;BME280;63750;52.418;20.742;2023-04-09T01:53:10;101396.88;;;11.19;66.81
75172;BME280;63750;52.418;20.742;2023-04-09T01:55:39;101400.34;;;11.18;66.99
75172;BME280;63750;52.418;20.742;2023-04-09T01:58:07;101399.02;;;11.19;67.20
75172;BME280;63750;52.418;20.742;2023-04-09T02:00:39;101397.01;;;11.20;67.39
75172;BME280;63750;52.418;20.742;2023-04-09T02:03:12;101397.81;;;11.18;67.48
75172;BME280;63750;52.418;20.742;2023-04-09T02:05:47;101396.87;;;11.17;67.35
75172;BME280;63750;52.418;20.742;2023-04-09T02:08:21;101397.91;;;11.17;67.74
75172;BME280;63750;52.418;20.742;2023-04-09T02:10:53;101395.05;;;11.20;67.44
75172;BME280;63750;52.418;20.742;2023-04-09T02:13:24;101396.21;;;11.21;67.32
75172;BME280;63750;52.418;20.742;2023-04-09T02:15:56;101401.73;;;11.19;67.54
75172;BME280;63750;52.418;20.742;2023-04-09T02:18:27;101401.66;;;11.17;67.82
75172;BME280;63750;52.418;20.742;2023-04-09T02:20:57;101400.95;;;11.17;67.57
75172;BME280;63750;52.418;20.742;2023-04-09T02:23:26;101402.06;;;11.16;67.65
75172;BME280;63750;52.418;20.742;2023-04-09T02:25:54;101401.52;;;11.17;67.78
75172;BME280;63750;52.418;20.742;2023-04-09T02:28:23;101406.99;;;11.12;67.94
75172;BME280;63750;52.418;20.742;2023-04-09T02:30:52;101407.13;;;11.11;67.83
75172;BME280;63750;52.418;20.742;2023-04-09T02:33:20;101403.05;;;11.11;68.01
75172;BME280;63750;52.418;20.742;2023-04-09T02:35:49;101413.31;;;11.09;67.75
75172;BME280;63750;52.418;20.742;2023-04-09T02:38:17;101413.02;;;11.08;68.03
75172;BME280;63750;52.418;20.742;2023-04-09T02:40:46;101411.65;;;11.05;68.07
75172;BME280;63750;52.418;20.742;2023-04-09T02:43:14;101408.27;;;11.02;68.19
75172;BME280;63750;52.418;20.742;2023-04-09T02:45:42;101411.01;;;11.02;67.99
75172;BME280;63750;52.418;20.742;2023-04-09T02:48:11;101417.80;;;10.96;68.03
75172;BME280;63750;52.418;20.742;2023-04-09T02:50:39;101417.30;;;10.93;68.47
75172;BME280;63750;52.418;20.742;2023-04-09T02:53:07;101413.27;;;10.90;68.19
75172;BME280;63750;52.418;20.742;2023-04-09T02:55:36;101416.91;;;10.91;68.46
75172;BME280;63750;52.418;20.742;2023-04-09T02:58:04;101420.02;;;10.92;68.34
75172;BME280;63750;52.418;20.742;2023-04-09T03:00:32;101420.25;;;10.91;68.40
75172;BME280;63750;52.418;20.742;2023-04-09T03:03:00;101420.08;;;10.94;68.20
75172;BME280;63750;52.418;20.742;2023-04-09T03:05:29;101419.10;;;10.98;68.63
75172;BME280;63750;52.418;20.742;2023-04-09T03:07:57;101413.73;;;11.00;68.67
75172;BME280;63750;52.418;20.742;2023-04-09T03:10:26;101415.56;;;11.05;68.63
75172;BME280;63750;52.418;20.742;2023-04-09T03:12:54;101413.27;;;11.07;68.33
75172;BME280;63750;52.418;20.742;2023-04-09T03:15:22;101414.45;;;11.07;68.43
75172;BME280;63750;52.418;20.742;2023-04-09T03:17:51;101415.42;;;11.09;68.59
75172;BME280;63750;52.418;20.742;2023-04-09T03:20:19;101415.14;;;11.13;68.48
75172;BME280;63750;52.418;20.742;2023-04-09T03:22:48;101414.40;;;11.13;68.39
75172;BME280;63750;52.418;20.742;2023-04-09T03:25:16;101411.27;;;11.14;68.59
75172;BME280;63750;52.418;20.742;2023-04-09T03:27:45;101417.44;;;11.15;68.41
75172;BME280;63750;52.418;20.742;2023-04-09T03:30:13;101415.64;;;11.13;68.45
75172;BME280;63750;52.418;20.742;2023-04-09T03:32:42;101416.67;;;11.13;68.22
75172;BME280;63750;52.418;20.742;2023-04-09T03:35:10;101412.40;;;11.18;68.45
75172;BME280;63750;52.418;20.742;2023-04-09T03:37:38;101415.11;;;11.22;68.61
75172;BME280;63750;52.418;20.742;2023-04-09T03:40:09;101407.36;;;11.24;68.32
75172;BME280;63750;52.418;20.742;2023-04-09T03:42:38;101407.63;;;11.25;68.31
75172;BME280;63750;52.418;20.742;2023-04-09T03:45:08;101410.70;;;11.29;68.03
75172;BME280;63750;52.418;20.742;2023-04-09T03:47:36;101408.88;;;11.29;68.12
75172;BME280;63750;52.418;20.742;2023-04-09T03:50:06;101406.93;;;11.32;68.10
75172;BME280;63750;52.418;20.742;2023-04-09T03:52:34;101407.41;;;11.30;68.02
75172;BME280;63750;52.418;20.742;2023-04-09T03:55:05;101404.59;;;11.29;67.90
75172;BME280;63750;52.418;20.742;2023-04-09T03:57:34;101407.59;;;11.26;67.89
75172;BME280;63750;52.418;20.742;2023-04-09T04:00:03;101407.60;;;11.23;68.02
75172;BME280;63750;52.418;20.742;2023-04-09T04:02:31;101406.75;;;11.22;67.60
75172;BME280;63750;52.418;20.742;2023-04-09T04:05:00;101406.34;;;11.23;67.67
75172;BME280;63750;52.418;20.742;2023-04-09T04:07:28;101403.73;;;11.22;67.96
75172;BME280;63750;52.418;20.742;2023-04-09T04:09:56;101403.77;;;11.22;67.72
75172;BME280;63750;52.418;20.742;2023-04-09T04:12:25;101402.08;;;11.23;67.74
75172;BME280;63750;52.418;20.742;2023-04-09T04:14:53;101400.73;;;11.24;67.80
75172;BME280;63750;52.418;20.742;2023-04-09T04:17:21;101402.02;;;11.24;67.61
75172;BME280;63750;52.418;20.742;2023-04-09T04:19:50;101405.95;;;11.24;67.68
75172;BME280;63750;52.418;20.742;2023-04-09T04:22:18;101401.87;;;11.24;67.71
75172;BME280;63750;52.418;20.742;2023-04-09T04:24:47;101404.34;;;11.24;67.61
75172;BME280;63750;52.418;20.742;2023-04-09T04:27:15;101401.21;;;11.23;67.71
75172;BME280;63750;52.418;20.742;2023-04-09T04:29:43;101399.66;;;11.23;67.78
75172;BME280;63750;52.418;20.742;2023-04-09T04:32:12;101395.11;;;11.22;67.80
75172;BME280;63750;52.418;20.742;2023-04-09T04:34:40;101394.67;;;11.20;67.57
75172;BME280;63750;52.418;20.742;2023-04-09T04:37:08;101393.30;;;11.20;67.69
75172;BME280;63750;52.418;20.742;2023-04-09T04:39:37;101398.30;;;11.21;67.51
75172;BME280;63750;52.418;20.742;2023-04-09T04:42:05;101399.02;;;11.24;67.81
75172;BME280;63750;52.418;20.742;2023-04-09T04:44:33;101397.66;;;11.28;67.83
75172;BME280;63750;52.418;20.742;2023-04-09T04:47:02;101394.05;;;11.33;68.06
75172;BME280;63750;52.418;20.742;2023-04-09T04:49:30;101397.74;;;11.38;67.86
75172;BME280;63750;52.418;20.742;2023-04-09T04:51:58;101400.77;;;11.43;67.78
75172;BME280;63750;52.418;20.742;2023-04-09T04:54:26;101400.38;;;11.45;67.73
75172;BME280;63750;52.418;20.742;2023-04-09T04:56:55;101399.81;;;11.48;67.75
75172;BME280;63750;52.418;20.742;2023-04-09T04:59:23;101399.47;;;11.52;67.62
75172;BME280;63750;52.418;20.742;2023-04-09T05:01:52;101399.09;;;11.57;67.65
75172;BME280;63750;52.418;20.742;2023-04-09T05:04:20;101404.98;;;11.61;67.45
75172;BME280;63750;52.418;20.742;2023-04-09T05:06:48;101406.77;;;11.63;67.22
75172;BME280;63750;52.418;20.742;2023-04-09T05:09:17;101413.87;;;11.66;67.35
75172;BME280;63750;52.418;20.742;2023-04-09T05:11:45;101411.63;;;11.68;67.21
75172;BME280;63750;52.418;20.742;2023-04-09T05:14:13;101413.58;;;11.70;67.31
75172;BME280;63750;52.418;20.742;2023-04-09T05:16:42;101411.88;;;11.73;67.44
75172;BME280;63750;52.418;20.742;2023-04-09T05:19:10;101415.70;;;11.74;67.19
75172;BME280;63750;52.418;20.742;2023-04-09T05:21:39;101412.66;;;11.75;67.06
75172;BME280;63750;52.418;20.742;2023-04-09T05:24:07;101413.94;;;11.74;66.99
75172;BME280;63750;52.418;20.742;2023-04-09T05:26:35;101419.39;;;11.73;67.06
75172;BME280;63750;52.418;20.742;2023-04-09T05:29:04;101421.48;;;11.73;67.10
75172;BME280;63750;52.418;20.742;2023-04-09T05:31:32;101424.00;;;11.75;67.09
75172;BME280;63750;52.418;20.742;2023-04-09T05:34:01;101423.02;;;11.77;67.04
75172;BME280;63750;52.418;20.742;2023-04-09T05:36:30;101424.38;;;11.78;67.18
75172;BME280;63750;52.418;20.742;2023-04-09T05:38:58;101428.47;;;11.80;67.06
75172;BME280;63750;52.418;20.742;2023-04-09T05:41:26;101428.69;;;11.81;67.05
75172;BME280;63750;52.418;20.742;2023-04-09T05:43:55;101426.55;;;11.84;67.02
75172;BME280;63750;52.418;20.742;2023-04-09T05:46:23;101430.40;;;11.84;67.17
75172;BME280;63750;52.418;20.742;2023-04-09T05:48:52;101432.10;;;11.86;66.98
75172;BME280;63750;52.418;20.742;2023-04-09T05:51:20;101431.98;;;11.87;67.10
75172;BME280;63750;52.418;20.742;2023-04-09T05:53:48;101436.86;;;11.88;66.99
75172;BME280;63750;52.418;20.742;2023-04-09T05:56:17;101435.33;;;11.89;67.08
75172;BME280;63750;52.418;20.742;2023-04-09T05:58:45;101436.27;;;11.91;67.05
75172;BME280;63750;52.418;20.742;2023-04-09T06:01:13;101435.04;;;11.93;67.18
75172;BME280;63750;52.418;20.742;2023-04-09T06:03:42;101436.10;;;11.95;67.08
75172;BME280;63750;52.418;20.742;2023-04-09T06:06:11;101434.09;;;11.98;67.25
75172;BME280;63750;52.418;20.742;2023-04-09T06:08:39;101433.79;;;12.02;67.10
75172;BME280;63750;52.418;20.742;2023-04-09T06:11:10;101439.42;;;12.05;67.09
75172;BME280;63750;52.418;20.742;2023-04-09T06:13:39;101442.11;;;12.09;67.18
75172;BME280;63750;52.418;20.742;2023-04-09T06:16:08;101442.12;;;12.14;67.14
75172;BME280;63750;52.418;20.742;2023-04-09T06:18:37;101439.35;;;12.17;67.24
75172;BME280;63750;52.418;20.742;2023-04-09T06:21:07;101438.95;;;12.20;67.20
75172;BME280;63750;52.418;20.742;2023-04-09T06:23:36;101444.48;;;12.22;67.15
75172;BME280;63750;52.418;20.742;2023-04-09T06:26:04;101447.35;;;12.26;67.20
75172;BME280;63750;52.418;20.742;2023-04-09T06:28:33;101451.13;;;12.28;67.07
75172;BME280;63750;52.418;20.742;2023-04-09T06:31:01;101448.61;;;12.30;67.05
75172;BME280;63750;52.418;20.742;2023-04-09T06:33:30;101448.76;;;12.32;66.96
75172;BME280;63750;52.418;20.742;2023-04-09T06:35:58;101452.90;;;12.34;66.94
75172;BME280;63750;52.418;20.742;2023-04-09T06:38:26;101458.81;;;12.38;66.99
75172;BME280;63750;52.418;20.742;2023-04-09T06:40:56;101460.57;;;12.43;66.97
75172;BME280;63750;52.418;20.742;2023-04-09T06:43:24;101460.42;;;12.49;66.99
75172;BME280;63750;52.418;20.742;2023-04-09T06:45:52;101466.18;;;12.55;66.85
75172;BME280;63750;52.418;20.742;2023-04-09T06:48:20;101468.11;;;12.60;66.74
75172;BME280;63750;52.418;20.742;2023-04-09T06:50:49;101471.37;;;12.68;66.70
75172;BME280;63750;52.418;20.742;2023-04-09T06:53:17;101471.85;;;12.79;66.60
75172;BME280;63750;52.418;20.742;2023-04-09T06:55:46;101473.91;;;12.95;66.49
75172;BME280;63750;52.418;20.742;2023-04-09T06:58:14;101473.41;;;13.15;66.34
75172;BME280;63750;52.418;20.742;2023-04-09T07:00:42;101473.80;;;13.27;66.00
75172;BME280;63750;52.418;20.742;2023-04-09T07:03:11;101472.30;;;13.38;65.61
75172;BME280;63750;52.418;20.742;2023-04-09T07:05:39;101473.23;;;13.49;65.33
75172;BME280;63750;52.418;20.742;2023-04-09T07:08:08;101476.42;;;13.61;65.24
75172;BME280;63750;52.418;20.742;2023-04-09T07:10:36;101477.38;;;13.73;64.96
75172;BME280;63750;52.418;20.742;2023-04-09T07:13:04;101479.88;;;13.84;64.45
75172;BME280;63750;52.418;20.742;2023-04-09T07:15:33;101478.54;;;13.91;63.98
75172;BME280;63750;52.418;20.742;2023-04-09T07:18:01;101476.91;;;14.01;63.82
75172;BME280;63750;52.418;20.742;2023-04-09T07:20:30;101473.80;;;14.06;63.31
75172;BME280;63750;52.418;20.742;2023-04-09T07:22:58;101477.44;;;14.05;62.99
75172;BME280;63750;52.418;20.742;2023-04-09T07:25:26;101484.06;;;14.09;62.32
75172;BME280;63750;52.418;20.742;2023-04-09T07:27:55;101481.98;;;14.08;62.34
75172;BME280;63750;52.418;20.742;2023-04-09T07:30:23;101482.98;;;14.07;62.04
75172;BME280;63750;52.418;20.742;2023-04-09T07:32:52;101479.86;;;14.14;62.38
75172;BME280;63750;52.418;20.742;2023-04-09T07:35:20;101485.25;;;14.18;62.28
75172;BME280;63750;52.418;20.742;2023-04-09T07:37:49;101484.89;;;14.22;62.07
75172;BME280;63750;52.418;20.742;2023-04-09T07:40:17;101486.81;;;14.28;62.16
75172;BME280;63750;52.418;20.742;2023-04-09T07:42:45;101490.56;;;14.37;62.23
75172;BME280;63750;52.418;20.742;2023-04-09T07:45:14;101493.73;;;14.46;62.60
75172;BME280;63750;52.418;20.742;2023-04-09T07:47:42;101495.73;;;14.57;62.21
75172;BME280;63750;52.418;20.742;2023-04-09T07:50:11;101490.95;;;14.76;62.05
75172;BME280;63750;52.418;20.742;2023-04-09T07:52:40;101487.03;;;14.99;61.86
75172;BME280;63750;52.418;20.742;2023-04-09T07:55:09;101485.02;;;15.14;61.74
75172;BME280;63750;52.418;20.742;2023-04-09T07:57:37;101486.81;;;15.24;61.39
75172;BME280;63750;52.418;20.742;2023-04-09T08:00:07;101485.54;;;15.28;61.02
75172;BME280;63750;52.418;20.742;2023-04-09T08:02:36;101494.05;;;15.37;61.10
75172;BME280;63750;52.418;20.742;2023-04-09T08:05:05;101497.34;;;15.40;60.43
75172;BME280;63750;52.418;20.742;2023-04-09T08:07:34;101498.21;;;15.40;60.14
75172;BME280;63750;52.418;20.742;2023-04-09T08:10:02;101496.73;;;15.42;59.67
75172;BME280;63750;52.418;20.742;2023-04-09T08:12:30;101499.85;;;15.42;59.69
75172;BME280;63750;52.418;20.742;2023-04-09T08:14:59;101502.33;;;15.45;59.31
75172;BME280;63750;52.418;20.742;2023-04-09T08:17:27;101506.81;;;15.51;59.60
75172;BME280;63750;52.418;20.742;2023-04-09T08:19:56;101499.35;;;15.68;60.04
75172;BME280;63750;52.418;20.742;2023-04-09T08:22:25;101500.83;;;15.87;60.14
75172;BME280;63750;52.418;20.742;2023-04-09T08:24:54;101499.41;;;16.11;60.24
75172;BME280;63750;52.418;20.742;2023-04-09T08:27:23;101496.23;;;16.26;59.82
75172;BME280;63750;52.418;20.742;2023-04-09T08:29:51;101499.04;;;16.43;59.76
75172;BME280;63750;52.418;20.742;2023-04-09T08:32:20;101498.50;;;16.64;59.64
75172;BME280;63750;52.418;20.742;2023-04-09T08:34:48;101497.20;;;16.75;58.78
75172;BME280;63750;52.418;20.742;2023-04-09T08:37:17;101492.98;;;16.85;58.25
75172;BME280;63750;52.418;20.742;2023-04-09T08:39:46;101493.52;;;16.94;57.94
75172;BME280;63750;52.418;20.742;2023-04-09T08:42:14;101498.70;;;16.96;57.31
75172;BME280;63750;52.418;20.742;2023-04-09T08:44:44;101504.72;;;16.91;56.57
75172;BME280;63750;52.418;20.742;2023-04-09T08:47:12;101500.41;;;16.95;56.33
75172;BME280;63750;52.418;20.742;2023-04-09T08:49:41;101499.14;;;17.01;56.14
75172;BME280;63750;52.418;20.742;2023-04-09T08:52:09;101497.34;;;17.12;56.13
75172;BME280;63750;52.418;20.742;2023-04-09T08:54:38;101496.27;;;17.21;55.83
75172;BME280;63750;52.418;20.742;2023-04-09T08:57:07;101498.36;;;17.34;55.76
75172;BME280;63750;52.418;20.742;2023-04-09T08:59:35;101499.58;;;17.43;55.64
75172;BME280;63750;52.418;20.742;2023-04-09T09:02:10;101493.05;;;17.58;55.63
75172;BME280;63750;52.418;20.742;2023-04-09T09:04:49;101493.61;;;17.68;55.35
75172;BME280;63750;52.418;20.742;2023-04-09T09:07:18;101492.79;;;17.75;55.04
75172;BME280;63750;52.418;20.742;2023-04-09T09:09:54;101495.86;;;17.79;54.77
75172;BME280;63750;52.418;20.742;2023-04-09T09:12:40;101496.55;;;17.75;54.23
75172;BME280;63750;52.418;20.742;2023-04-09T09:15:26;101500.76;;;17.61;54.07
75172;BME280;63750;52.418;20.742;2023-04-09T09:17:55;101500.41;;;17.52;54.24
75172;BME280;63750;52.418;20.742;2023-04-09T09:20:25;101502.14;;;17.51;54.37
75172;BME280;63750;52.418;20.742;2023-04-09T09:22:54;101502.42;;;17.49;54.15
75172;BME280;63750;52.418;20.742;2023-04-09T09:25:23;101507.81;;;17.41;53.73
75172;BME280;63750;52.418;20.742;2023-04-09T09:27:52;101505.20;;;17.33;53.74
75172;BME280;63750;52.418;20.742;2023-04-09T09:30:25;101507.08;;;17.27;53.52
75172;BME280;63750;52.418;20.742;2023-04-09T09:33:03;101508.11;;;17.16;53.21
75172;BME280;63750;52.418;20.742;2023-04-09T09:35:31;101512.39;;;17.08;53.40
75172;BME280;63750;52.418;20.742;2023-04-09T09:38:13;101513.45;;;17.03;53.59
75172;BME280;63750;52.418;20.742;2023-04-09T09:40:42;101511.09;;;16.90;53.29
75172;BME280;63750;52.418;20.742;2023-04-09T09:43:10;101515.65;;;16.84;53.41
75172;BME280;63750;52.418;20.742;2023-04-09T09:45:39;101513.91;;;16.80;53.54
75172;BME280;63750;52.418;20.742;2023-04-09T09:48:08;101514.63;;;16.78;53.89
75172;BME280;63750;52.418;20.742;2023-04-09T09:50:38;101513.29;;;16.68;53.63
75172;BME280;63750;52.418;20.742;2023-04-09T09:53:09;101515.16;;;16.65;54.11
75172;BME280;63750;52.418;20.742;2023-04-09T09:55:43;101512.75;;;16.68;54.39
75172;BME280;63750;52.418;20.742;2023-04-09T09:58:18;101513.45;;;16.61;53.92
75172;BME280;63750;52.418;20.742;2023-04-09T10:00:50;101509.42;;;16.54;54.03
75172;BME280;63750;52.418;20.742;2023-04-09T10:03:26;101510.25;;;16.53;53.92
75172;BME280;63750;52.418;20.742;2023-04-09T10:05:55;101507.50;;;16.48;53.72
75172;BME280;63750;52.418;20.742;2023-04-09T10:08:30;101507.98;;;16.39;53.72
75172;BME280;63750;52.418;20.742;2023-04-09T10:11:01;101505.60;;;16.34;53.72
75172;BME280;63750;52.418;20.742;2023-04-09T10:13:34;101507.92;;;16.31;53.70
75172;BME280;63750;52.418;20.742;2023-04-09T10:16:05;101503.88;;;16.30;53.85
75172;BME280;63750;52.418;20.742;2023-04-09T10:18:34;101505.49;;;16.28;53.86
75172;BME280;63750;52.418;20.742;2023-04-09T10:21:06;101503.27;;;16.21;53.97
75172;BME280;63750;52.418;20.742;2023-04-09T10:23:39;101507.40;;;16.19;54.13
75172;BME280;63750;52.418;20.742;2023-04-09T10:26:08;101503.98;;;16.10;54.10
75172;BME280;63750;52.418;20.742;2023-04-09T10:28:38;101501.76;;;15.98;54.10
75172;BME280;63750;52.418;20.742;2023-04-09T10:31:07;101504.85;;;15.88;54.20
75172;BME280;63750;52.418;20.742;2023-04-09T10:33:37;101502.22;;;15.89;54.26
75172;BME280;63750;52.418;20.742;2023-04-09T10:36:10;101501.70;;;15.95;54.37
75172;BME280;63750;52.418;20.742;2023-04-09T10:38:40;101495.96;;;16.04;54.23
75172;BME280;63750;52.418;20.742;2023-04-09T10:41:11;101494.91;;;16.17;54.40
75172;BME280;63750;52.418;20.742;2023-04-09T10:43:41;101490.17;;;16.31;54.53
75172;BME280;63750;52.418;20.742;2023-04-09T10:46:25;101497.65;;;16.46;54.88
75172;BME280;63750;52.418;20.742;2023-04-09T10:52:02;101497.21;;;16.93;55.29
75172;BME280;63750;52.418;20.742;2023-04-09T10:54:47;101499.46;;;17.08;54.61
75172;BME280;63750;52.418;20.742;2023-04-09T10:57:19;101497.06;;;17.13;53.85
75172;BME280;63750;52.418;20.742;2023-04-09T10:59:49;101498.66;;;17.14;53.47
75172;BME280;63750;52.418;20.742;2023-04-09T11:02:44;101498.87;;;17.18;53.32
75172;BME280;63750;52.418;20.742;2023-04-09T11:05:24;101496.13;;;17.20;53.40
75172;BME280;63750;52.418;20.742;2023-04-09T11:07:56;101495.59;;;17.24;53.27
75172;BME280;63750;52.418;20.742;2023-04-09T11:10:25;101493.95;;;17.25;53.06
75172;BME280;63750;52.418;20.742;2023-04-09T11:12:54;101495.51;;;17.26;52.91
75172;BME280;63750;52.418;20.742;2023-04-09T11:15:22;101493.91;;;17.24;52.93
75172;BME280;63750;52.418;20.742;2023-04-09T11:17:51;101495.52;;;17.24;53.15
75172;BME280;63750;52.418;20.742;2023-04-09T11:20:22;101494.30;;;17.22;53.08
75172;BME280;63750;52.418;20.742;2023-04-09T11:22:52;101494.69;;;17.16;52.84
75172;BME280;63750;52.418;20.742;2023-04-09T11:25:24;101496.05;;;17.08;52.62
75172;BME280;63750;52.418;20.742;2023-04-09T11:27:53;101495.82;;;17.00;52.71
75172;BME280;63750;52.418;20.742;2023-04-09T11:30:22;101495.38;;;16.97;52.78
75172;BME280;63750;52.418;20.742;2023-04-09T11:32:51;101490.02;;;16.99;52.73
75172;BME280;63750;52.418;20.742;2023-04-09T11:35:21;101494.53;;;17.02;52.62
75172;BME280;63750;52.418;20.742;2023-04-09T11:37:50;101492.05;;;17.00;52.41
75172;BME280;63750;52.418;20.742;2023-04-09T11:40:19;101489.63;;;16.99;52.40
75172;BME280;63750;52.418;20.742;2023-04-09T11:42:49;101490.89;;;17.03;52.42
75172;BME280;63750;52.418;20.742;2023-04-09T11:45:18;101486.48;;;17.06;52.30
75172;BME280;63750;52.418;20.742;2023-04-09T11:47:47;101484.82;;;17.08;52.30
75172;BME280;63750;52.418;20.742;2023-04-09T11:50:16;101484.39;;;17.12;52.33
75172;BME280;63750;52.418;20.742;2023-04-09T11:52:45;101481.88;;;17.19;52.49
75172;BME280;63750;52.418;20.742;2023-04-09T11:55:23;101479.48;;;17.41;52.71
75172;BME280;63750;52.418;20.742;2023-04-09T11:57:53;101479.38;;;17.76;52.91
75172;BME280;63750;52.418;20.742;2023-04-09T12:00:24;101475.89;;;18.18;52.66
75172;BME280;63750;52.418;20.742;2023-04-09T12:02:59;101475.63;;;18.62;52.14
75172;BME280;63750;52.418;20.742;2023-04-09T12:05:30;101475.34;;;18.98;51.38
75172;BME280;63750;52.418;20.742;2023-04-09T12:08:00;101476.34;;;19.25;50.67
75172;BME280;63750;52.418;20.742;2023-04-09T12:10:30;101471.12;;;19.55;50.19
75172;BME280;63750;52.418;20.742;2023-04-09T12:13:04;101468.58;;;19.86;49.55
75172;BME280;63750;52.418;20.742;2023-04-09T12:15:34;101464.76;;;20.10;49.22
75172;BME280;63750;52.418;20.742;2023-04-09T12:18:02;101462.02;;;20.23;48.49
75172;BME280;63750;52.418;20.742;2023-04-09T12:20:33;101454.88;;;20.26;47.85
75172;BME280;63750;52.418;20.742;2023-04-09T12:23:03;101458.20;;;20.31;47.50
75172;BME280;63750;52.418;20.742;2023-04-09T12:25:33;101458.69;;;20.35;47.08
75172;BME280;63750;52.418;20.742;2023-04-09T12:28:03;101456.23;;;20.34;46.90
75172;BME280;63750;52.418;20.742;2023-04-09T12:30:32;101457.80;;;20.30;46.43
75172;BME280;63750;52.418;20.742;2023-04-09T12:33:01;101454.04;;;20.22;45.81
75172;BME280;63750;52.418;20.742;2023-04-09T12:35:30;101450.89;;;20.06;45.53
75172;BME280;63750;52.418;20.742;2023-04-09T12:37:58;101449.65;;;20.05;45.52
75172;BME280;63750;52.418;20.742;2023-04-09T12:40:28;101449.13;;;20.15;45.34
75172;BME280;63750;52.418;20.742;2023-04-09T12:42:56;101449.11;;;20.19;45.42
75172;BME280;63750;52.418;20.742;2023-04-09T12:45:25;101447.85;;;20.40;45.27
75172;BME280;63750;52.418;20.742;2023-04-09T12:47:53;101442.23;;;20.75;44.89
75172;BME280;63750;52.418;20.742;2023-04-09T12:50:22;101438.70;;;21.08;44.50
75172;BME280;63750;52.418;20.742;2023-04-09T12:52:50;101435.98;;;21.39;44.29
75172;BME280;63750;52.418;20.742;2023-04-09T12:55:18;101435.45;;;21.67;44.08